sensor_id;sensor_type;location;lat;lon;timestamp;P1;durP1;ratioP1;P2;durP2;ratioP2
26060;SDS011;36331;51.378;0.018;2023-02-23T00:00:09;9.60;;;5.97;;
26060;SDS011;36331;51.378;0.018;2023-02-23T00:02:48;9.40;;;5.88;;
26060;SDS011;36331;51.378;0.018;2023-02-23T00:05:18;11.10;;;6.57;;
26060;SDS011;36331;51.378;0.018;2023-02-23T00:07:47;9.57;;;5.93;;
26060;SDS011;36331;51.378;0.018;2023-02-23T00:10:16;7.65;;;5.35;;
26060;SDS011;36331;51.378;0.018;2023-02-23T00:12:47;10.07;;;6.32;;
26060;SDS011;36331;51.378;0.018;2023-02-23T00:15:16;9.63;;;6.10;;
26060;SDS011;36331;51.378;0.018;2023-02-23T00:17:45;9.27;;;5.72;;
26060;SDS011;36331;51.378;0.018;2023-02-23T00:20:16;9.10;;;5.90;;
26060;SDS011;36331;51.378;0.018;2023-02-23T00:22:52;11.43;;;7.40;;
26060;SDS011;36331;51.378;0.018;2023-02-23T00:25:22;9.93;;;5.60;;
26060;SDS011;36331;51.378;0.018;2023-02-23T00:27:52;12.35;;;6.70;;
26060;SDS011;36331;51.378;0.018;2023-02-23T00:30:22;12.18;;;7.00;;
26060;SDS011;36331;51.378;0.018;2023-02-23T00:32:52;9.27;;;6.50;;
26060;SDS011;36331;51.378;0.018;2023-02-23T00:35:22;11.13;;;7.10;;
26060;SDS011;36331;51.378;0.018;2023-02-23T00:37:52;12.93;;;7.53;;
26060;SDS011;36331;51.378;0.018;2023-02-23T00:40:21;12.57;;;7.85;;
26060;SDS011;36331;51.378;0.018;2023-02-23T00:42:51;14.82;;;9.35;;
26060;SDS011;36331;51.378;0.018;2023-02-23T00:45:21;15.43;;;8.98;;
26060;SDS011;36331;51.378;0.018;2023-02-23T00:47:51;14.75;;;8.93;;
26060;SDS011;36331;51.378;0.018;2023-02-23T00:50:20;19.15;;;10.25;;
26060;SDS011;36331;51.378;0.018;2023-02-23T00:52:51;15.65;;;9.70;;
26060;SDS011;36331;51.378;0.018;2023-02-23T00:55:22;15.13;;;9.40;;
26060;SDS011;36331;51.378;0.018;2023-02-23T00:57:52;16.70;;;9.98;;
26060;SDS011;36331;51.378;0.018;2023-02-23T01:00:21;17.67;;;10.55;;
26060;SDS011;36331;51.378;0.018;2023-02-23T01:02:54;17.20;;;10.40;;
26060;SDS011;36331;51.378;0.018;2023-02-23T01:05:23;18.52;;;10.93;;
26060;SDS011;36331;51.378;0.018;2023-02-23T01:07:54;16.95;;;10.55;;
26060;SDS011;36331;51.378;0.018;2023-02-23T01:13:42;17.33;;;10.23;;
26060;SDS011;36331;51.378;0.018;2023-02-23T01:16:14;18.77;;;11.52;;
26060;SDS011;36331;51.378;0.018;2023-02-23T01:18:43;15.10;;;9.82;;
26060;SDS011;36331;51.378;0.018;2023-02-23T01:21:14;16.43;;;9.53;;
26060;SDS011;36331;51.378;0.018;2023-02-23T01:23:46;17.10;;;10.27;;
26060;SDS011;36331;51.378;0.018;2023-02-23T01:26:15;17.55;;;10.38;;
26060;SDS011;36331;51.378;0.018;2023-02-23T01:28:47;14.98;;;9.68;;
26060;SDS011;36331;51.378;0.018;2023-02-23T01:31:16;17.38;;;10.45;;
26060;SDS011;36331;51.378;0.018;2023-02-23T01:33:46;18.27;;;10.18;;
26060;SDS011;36331;51.378;0.018;2023-02-23T01:36:15;16.65;;;9.25;;
26060;SDS011;36331;51.378;0.018;2023-02-23T01:38:46;18.88;;;10.60;;
26060;SDS011;36331;51.378;0.018;2023-02-23T01:41:16;14.13;;;7.88;;
26060;SDS011;36331;51.378;0.018;2023-02-23T01:43:55;11.63;;;8.32;;
26060;SDS011;36331;51.378;0.018;2023-02-23T01:46:25;12.85;;;8.00;;
26060;SDS011;36331;51.378;0.018;2023-02-23T01:48:57;16.20;;;8.50;;
26060;SDS011;36331;51.378;0.018;2023-02-23T01:51:28;13.38;;;7.55;;
26060;SDS011;36331;51.378;0.018;2023-02-23T01:54:01;12.35;;;7.00;;
26060;SDS011;36331;51.378;0.018;2023-02-23T01:56:33;11.02;;;7.72;;
26060;SDS011;36331;51.378;0.018;2023-02-23T01:59:05;11.65;;;6.93;;
26060;SDS011;36331;51.378;0.018;2023-02-23T02:01:38;11.02;;;6.40;;
26060;SDS011;36331;51.378;0.018;2023-02-23T02:04:08;9.40;;;6.35;;
26060;SDS011;36331;51.378;0.018;2023-02-23T02:06:43;11.82;;;6.15;;
26060;SDS011;36331;51.378;0.018;2023-02-23T02:09:15;13.07;;;7.30;;
26060;SDS011;36331;51.378;0.018;2023-02-23T02:14:23;9.45;;;5.00;;
26060;SDS011;36331;51.378;0.018;2023-02-23T02:17:13;8.40;;;5.53;;
26060;SDS011;36331;51.378;0.018;2023-02-23T02:22:45;10.63;;;5.45;;
26060;SDS011;36331;51.378;0.018;2023-02-23T02:25:34;8.90;;;5.43;;
26060;SDS011;36331;51.378;0.018;2023-02-23T02:28:15;7.00;;;4.13;;
26060;SDS011;36331;51.378;0.018;2023-02-23T02:39:12;8.35;;;4.60;;
26060;SDS011;36331;51.378;0.018;2023-02-23T02:41:51;7.65;;;4.35;;
26060;SDS011;36331;51.378;0.018;2023-02-23T02:46:52;8.52;;;4.78;;
26060;SDS011;36331;51.378;0.018;2023-02-23T02:49:24;7.35;;;4.22;;
26060;SDS011;36331;51.378;0.018;2023-02-23T02:51:54;8.65;;;5.07;;
26060;SDS011;36331;51.378;0.018;2023-02-23T02:54:27;6.90;;;4.20;;
26060;SDS011;36331;51.378;0.018;2023-02-23T02:56:58;7.18;;;4.30;;
26060;SDS011;36331;51.378;0.018;2023-02-23T02:59:41;8.60;;;4.88;;
26060;SDS011;36331;51.378;0.018;2023-02-23T03:02:28;5.30;;;3.63;;
26060;SDS011;36331;51.378;0.018;2023-02-23T03:05:18;6.53;;;4.80;;
26060;SDS011;36331;51.378;0.018;2023-02-23T03:08:08;6.07;;;3.30;;
26060;SDS011;36331;51.378;0.018;2023-02-23T03:10:59;4.77;;;2.60;;
26060;SDS011;36331;51.378;0.018;2023-02-23T03:13:50;7.65;;;4.00;;
26060;SDS011;36331;51.378;0.018;2023-02-23T03:16:42;5.53;;;3.28;;
26060;SDS011;36331;51.378;0.018;2023-02-23T03:19:33;5.90;;;3.40;;
26060;SDS011;36331;51.378;0.018;2023-02-23T03:22:23;7.70;;;3.10;;
26060;SDS011;36331;51.378;0.018;2023-02-23T03:25:13;6.38;;;3.15;;
26060;SDS011;36331;51.378;0.018;2023-02-23T03:28:09;4.38;;;2.30;;
26060;SDS011;36331;51.378;0.018;2023-02-23T03:31:01;4.40;;;2.90;;
26060;SDS011;36331;51.378;0.018;2023-02-23T03:33:54;2.95;;;2.58;;
26060;SDS011;36331;51.378;0.018;2023-02-23T03:36:45;6.10;;;2.60;;
26060;SDS011;36331;51.378;0.018;2023-02-23T03:39:35;5.03;;;2.58;;
26060;SDS011;36331;51.378;0.018;2023-02-23T03:42:23;6.40;;;2.17;;
26060;SDS011;36331;51.378;0.018;2023-02-23T03:45:17;3.05;;;2.25;;
26060;SDS011;36331;51.378;0.018;2023-02-23T03:48:05;5.63;;;2.25;;
26060;SDS011;36331;51.378;0.018;2023-02-23T03:50:55;3.45;;;2.40;;
26060;SDS011;36331;51.378;0.018;2023-02-23T03:53:46;4.22;;;2.00;;
26060;SDS011;36331;51.378;0.018;2023-02-23T03:56:34;4.88;;;2.38;;
26060;SDS011;36331;51.378;0.018;2023-02-23T03:59:24;4.97;;;2.33;;
26060;SDS011;36331;51.378;0.018;2023-02-23T04:02:13;8.30;;;3.58;;
26060;SDS011;36331;51.378;0.018;2023-02-23T04:05:01;7.07;;;3.45;;
26060;SDS011;36331;51.378;0.018;2023-02-23T04:07:48;5.78;;;2.92;;
26060;SDS011;36331;51.378;0.018;2023-02-23T04:10:37;4.80;;;2.95;;
26060;SDS011;36331;51.378;0.018;2023-02-23T04:13:25;4.90;;;3.38;;
26060;SDS011;36331;51.378;0.018;2023-02-23T04:15:55;5.03;;;3.53;;
26060;SDS011;36331;51.378;0.018;2023-02-23T04:18:26;7.55;;;4.07;;
26060;SDS011;36331;51.378;0.018;2023-02-23T04:20:57;7.75;;;3.72;;
26060;SDS011;36331;51.378;0.018;2023-02-23T04:23:26;6.47;;;3.20;;
26060;SDS011;36331;51.378;0.018;2023-02-23T04:25:56;7.30;;;3.80;;
26060;SDS011;36331;51.378;0.018;2023-02-23T04:28:26;3.95;;;2.55;;
26060;SDS011;36331;51.378;0.018;2023-02-23T04:30:55;5.28;;;3.67;;
26060;SDS011;36331;51.378;0.018;2023-02-23T04:33:26;6.82;;;3.63;;
26060;SDS011;36331;51.378;0.018;2023-02-23T04:35:55;5.78;;;3.50;;
26060;SDS011;36331;51.378;0.018;2023-02-23T04:38:24;6.93;;;3.95;;
26060;SDS011;36331;51.378;0.018;2023-02-23T04:40:53;5.78;;;3.92;;
26060;SDS011;36331;51.378;0.018;2023-02-23T04:43:22;5.63;;;3.70;;
26060;SDS011;36331;51.378;0.018;2023-02-23T04:45:51;4.63;;;3.25;;
26060;SDS011;36331;51.378;0.018;2023-02-23T04:48:21;5.10;;;3.47;;
26060;SDS011;36331;51.378;0.018;2023-02-23T04:50:52;4.85;;;3.63;;
26060;SDS011;36331;51.378;0.018;2023-02-23T04:53:22;5.43;;;4.00;;
26060;SDS011;36331;51.378;0.018;2023-02-23T04:55:52;7.03;;;3.88;;
26060;SDS011;36331;51.378;0.018;2023-02-23T04:58:21;6.07;;;2.97;;
26060;SDS011;36331;51.378;0.018;2023-02-23T05:00:50;7.38;;;4.45;;
26060;SDS011;36331;51.378;0.018;2023-02-23T05:03:19;7.90;;;4.00;;
26060;SDS011;36331;51.378;0.018;2023-02-23T05:05:48;5.55;;;3.30;;
26060;SDS011;36331;51.378;0.018;2023-02-23T05:08:18;7.22;;;4.43;;
26060;SDS011;36331;51.378;0.018;2023-02-23T05:10:47;6.43;;;3.80;;
26060;SDS011;36331;51.378;0.018;2023-02-23T05:13:17;5.30;;;4.03;;
26060;SDS011;36331;51.378;0.018;2023-02-23T05:15:46;7.53;;;4.57;;
26060;SDS011;36331;51.378;0.018;2023-02-23T05:20:47;7.13;;;4.63;;
26060;SDS011;36331;51.378;0.018;2023-02-23T05:23:16;4.63;;;2.97;;
26060;SDS011;36331;51.378;0.018;2023-02-23T05:25:47;6.10;;;3.47;;
26060;SDS011;36331;51.378;0.018;2023-02-23T05:28:16;7.18;;;3.50;;
26060;SDS011;36331;51.378;0.018;2023-02-23T05:30:45;10.35;;;3.55;;
26060;SDS011;36331;51.378;0.018;2023-02-23T05:33:14;5.82;;;3.85;;
26060;SDS011;36331;51.378;0.018;2023-02-23T05:35:44;5.55;;;3.85;;
26060;SDS011;36331;51.378;0.018;2023-02-23T05:38:13;8.02;;;3.58;;
26060;SDS011;36331;51.378;0.018;2023-02-23T05:40:42;6.07;;;4.32;;
26060;SDS011;36331;51.378;0.018;2023-02-23T05:43:12;4.15;;;3.00;;
26060;SDS011;36331;51.378;0.018;2023-02-23T05:45:42;4.45;;;2.80;;
26060;SDS011;36331;51.378;0.018;2023-02-23T05:48:11;4.15;;;2.63;;
26060;SDS011;36331;51.378;0.018;2023-02-23T05:50:41;5.05;;;3.03;;
26060;SDS011;36331;51.378;0.018;2023-02-23T05:53:10;5.55;;;2.75;;
26060;SDS011;36331;51.378;0.018;2023-02-23T05:55:39;4.50;;;2.83;;
26060;SDS011;36331;51.378;0.018;2023-02-23T05:58:09;3.85;;;2.67;;
26060;SDS011;36331;51.378;0.018;2023-02-23T06:00:39;3.20;;;2.58;;
26060;SDS011;36331;51.378;0.018;2023-02-23T06:03:08;3.22;;;2.25;;
26060;SDS011;36331;51.378;0.018;2023-02-23T06:05:38;2.50;;;2.15;;
26060;SDS011;36331;51.378;0.018;2023-02-23T06:08:07;2.95;;;2.30;;
26060;SDS011;36331;51.378;0.018;2023-02-23T06:10:36;3.45;;;1.90;;
26060;SDS011;36331;51.378;0.018;2023-02-23T06:13:06;1.77;;;1.67;;
26060;SDS011;36331;51.378;0.018;2023-02-23T06:15:35;2.70;;;2.00;;
26060;SDS011;36331;51.378;0.018;2023-02-23T06:18:06;3.08;;;1.70;;
26060;SDS011;36331;51.378;0.018;2023-02-23T06:20:35;3.40;;;2.10;;
26060;SDS011;36331;51.378;0.018;2023-02-23T06:23:06;3.80;;;1.75;;
26060;SDS011;36331;51.378;0.018;2023-02-23T06:25:36;2.75;;;2.00;;
26060;SDS011;36331;51.378;0.018;2023-02-23T06:28:06;1.92;;;1.55;;
26060;SDS011;36331;51.378;0.018;2023-02-23T06:30:37;2.88;;;1.67;;
26060;SDS011;36331;51.378;0.018;2023-02-23T06:33:08;2.10;;;1.75;;
26060;SDS011;36331;51.378;0.018;2023-02-23T06:35:37;2.50;;;1.58;;
26060;SDS011;36331;51.378;0.018;2023-02-23T06:38:06;2.72;;;1.50;;
26060;SDS011;36331;51.378;0.018;2023-02-23T06:40:36;2.88;;;1.67;;
26060;SDS011;36331;51.378;0.018;2023-02-23T06:43:05;3.13;;;1.90;;
26060;SDS011;36331;51.378;0.018;2023-02-23T06:45:35;3.33;;;1.80;;
26060;SDS011;36331;51.378;0.018;2023-02-23T06:48:04;4.45;;;2.13;;
26060;SDS011;36331;51.378;0.018;2023-02-23T06:50:36;2.08;;;1.67;;
26060;SDS011;36331;51.378;0.018;2023-02-23T06:53:05;3.17;;;2.00;;
26060;SDS011;36331;51.378;0.018;2023-02-23T06:55:34;3.30;;;2.17;;
26060;SDS011;36331;51.378;0.018;2023-02-23T06:58:04;3.17;;;1.90;;
26060;SDS011;36331;51.378;0.018;2023-02-23T07:00:34;2.83;;;2.05;;
26060;SDS011;36331;51.378;0.018;2023-02-23T07:03:09;2.97;;;1.80;;
26060;SDS011;36331;51.378;0.018;2023-02-23T07:05:39;2.60;;;1.77;;
26060;SDS011;36331;51.378;0.018;2023-02-23T07:08:09;3.20;;;1.73;;
26060;SDS011;36331;51.378;0.018;2023-02-23T07:10:38;6.03;;;1.58;;
26060;SDS011;36331;51.378;0.018;2023-02-23T07:13:08;2.25;;;1.35;;
26060;SDS011;36331;51.378;0.018;2023-02-23T07:15:39;2.90;;;1.40;;
26060;SDS011;36331;51.378;0.018;2023-02-23T07:18:09;1.77;;;1.27;;
26060;SDS011;36331;51.378;0.018;2023-02-23T07:20:39;2.28;;;1.10;;
26060;SDS011;36331;51.378;0.018;2023-02-23T07:23:09;1.65;;;1.33;;
26060;SDS011;36331;51.378;0.018;2023-02-23T07:25:38;2.05;;;1.42;;
26060;SDS011;36331;51.378;0.018;2023-02-23T07:28:08;2.30;;;1.90;;
26060;SDS011;36331;51.378;0.018;2023-02-23T07:33:09;1.73;;;1.15;;
26060;SDS011;36331;51.378;0.018;2023-02-23T07:35:40;3.45;;;1.40;;
26060;SDS011;36331;51.378;0.018;2023-02-23T07:38:11;2.78;;;1.23;;
26060;SDS011;36331;51.378;0.018;2023-02-23T07:40:40;2.47;;;1.45;;
26060;SDS011;36331;51.378;0.018;2023-02-23T07:43:09;3.30;;;1.10;;
26060;SDS011;36331;51.378;0.018;2023-02-23T07:45:38;3.67;;;1.60;;
26060;SDS011;36331;51.378;0.018;2023-02-23T07:48:07;3.67;;;1.55;;
26060;SDS011;36331;51.378;0.018;2023-02-23T07:50:39;2.53;;;1.30;;
26060;SDS011;36331;51.378;0.018;2023-02-23T07:53:08;4.93;;;1.50;;
26060;SDS011;36331;51.378;0.018;2023-02-23T07:55:38;2.95;;;1.60;;
26060;SDS011;36331;51.378;0.018;2023-02-23T07:58:07;3.42;;;1.75;;
26060;SDS011;36331;51.378;0.018;2023-02-23T08:03:08;2.92;;;1.35;;
26060;SDS011;36331;51.378;0.018;2023-02-23T08:05:37;3.45;;;1.33;;
26060;SDS011;36331;51.378;0.018;2023-02-23T08:08:08;2.60;;;1.42;;
26060;SDS011;36331;51.378;0.018;2023-02-23T08:10:38;1.40;;;1.00;;
26060;SDS011;36331;51.378;0.018;2023-02-23T08:13:07;2.47;;;1.60;;
26060;SDS011;36331;51.378;0.018;2023-02-23T08:15:36;3.58;;;1.40;;
26060;SDS011;36331;51.378;0.018;2023-02-23T08:18:05;1.95;;;1.15;;
26060;SDS011;36331;51.378;0.018;2023-02-23T08:20:34;4.70;;;1.83;;
26060;SDS011;36331;51.378;0.018;2023-02-23T08:23:03;5.07;;;1.83;;
26060;SDS011;36331;51.378;0.018;2023-02-23T08:25:35;3.42;;;1.20;;
26060;SDS011;36331;51.378;0.018;2023-02-23T08:28:05;3.03;;;1.63;;
26060;SDS011;36331;51.378;0.018;2023-02-23T08:30:34;2.83;;;1.38;;
26060;SDS011;36331;51.378;0.018;2023-02-23T08:33:04;1.88;;;1.17;;
26060;SDS011;36331;51.378;0.018;2023-02-23T08:35:34;3.17;;;1.27;;
26060;SDS011;36331;51.378;0.018;2023-02-23T08:38:03;4.28;;;1.17;;
26060;SDS011;36331;51.378;0.018;2023-02-23T08:40:32;5.70;;;1.40;;
26060;SDS011;36331;51.378;0.018;2023-02-23T08:43:02;4.53;;;1.60;;
26060;SDS011;36331;51.378;0.018;2023-02-23T08:45:31;3.20;;;1.48;;
26060;SDS011;36331;51.378;0.018;2023-02-23T08:48:00;1.67;;;0.98;;
26060;SDS011;36331;51.378;0.018;2023-02-23T08:50:29;1.60;;;0.93;;
26060;SDS011;36331;51.378;0.018;2023-02-23T08:52:59;2.30;;;1.40;;
26060;SDS011;36331;51.378;0.018;2023-02-23T08:55:28;5.10;;;1.52;;
26060;SDS011;36331;51.378;0.018;2023-02-23T08:57:58;4.63;;;0.70;;
26060;SDS011;36331;51.378;0.018;2023-02-23T09:00:29;1.25;;;0.98;;
26060;SDS011;36331;51.378;0.018;2023-02-23T09:02:58;1.67;;;0.85;;
26060;SDS011;36331;51.378;0.018;2023-02-23T09:05:27;2.97;;;1.02;;
26060;SDS011;36331;51.378;0.018;2023-02-23T09:07:56;3.72;;;0.93;;
26060;SDS011;36331;51.378;0.018;2023-02-23T09:10:26;3.25;;;1.45;;
26060;SDS011;36331;51.378;0.018;2023-02-23T09:12:55;2.08;;;1.00;;
26060;SDS011;36331;51.378;0.018;2023-02-23T09:15:24;3.00;;;0.70;;
26060;SDS011;36331;51.378;0.018;2023-02-23T09:17:54;0.95;;;0.70;;
26060;SDS011;36331;51.378;0.018;2023-02-23T09:20:27;5.97;;;1.15;;
26060;SDS011;36331;51.378;0.018;2023-02-23T09:22:56;1.30;;;0.82;;
26060;SDS011;36331;51.378;0.018;2023-02-23T09:25:25;1.23;;;0.60;;
26060;SDS011;36331;51.378;0.018;2023-02-23T09:27:56;2.88;;;0.75;;
26060;SDS011;36331;51.378;0.018;2023-02-23T09:30:25;2.55;;;0.70;;
26060;SDS011;36331;51.378;0.018;2023-02-23T09:32:56;1.15;;;0.68;;
26060;SDS011;36331;51.378;0.018;2023-02-23T09:35:25;0.77;;;0.40;;
26060;SDS011;36331;51.378;0.018;2023-02-23T09:37:55;0.65;;;0.65;;
26060;SDS011;36331;51.378;0.018;2023-02-23T09:40:25;0.65;;;0.65;;
26060;SDS011;36331;51.378;0.018;2023-02-23T09:42:57;2.15;;;0.73;;
26060;SDS011;36331;51.378;0.018;2023-02-23T09:45:29;4.53;;;0.80;;
26060;SDS011;36331;51.378;0.018;2023-02-23T09:48:08;2.50;;;1.10;;
26060;SDS011;36331;51.378;0.018;2023-02-23T09:50:38;0.80;;;0.40;;
26060;SDS011;36331;51.378;0.018;2023-02-23T09:53:09;2.08;;;0.55;;
26060;SDS011;36331;51.378;0.018;2023-02-23T09:55:41;1.13;;;0.45;;
26060;SDS011;36331;51.378;0.018;2023-02-23T09:58:15;1.73;;;0.40;;
26060;SDS011;36331;51.378;0.018;2023-02-23T10:00:48;0.47;;;0.40;;
26060;SDS011;36331;51.378;0.018;2023-02-23T10:03:22;3.22;;;0.60;;
26060;SDS011;36331;51.378;0.018;2023-02-23T10:05:57;1.52;;;0.60;;
26060;SDS011;36331;51.378;0.018;2023-02-23T10:08:31;2.38;;;1.10;;
26060;SDS011;36331;51.378;0.018;2023-02-23T10:11:05;2.65;;;1.48;;
26060;SDS011;36331;51.378;0.018;2023-02-23T10:13:41;3.22;;;1.38;;
26060;SDS011;36331;51.378;0.018;2023-02-23T10:16:16;4.75;;;1.25;;
26060;SDS011;36331;51.378;0.018;2023-02-23T10:18:51;4.20;;;0.90;;
26060;SDS011;36331;51.378;0.018;2023-02-23T10:21:24;2.42;;;0.75;;
26060;SDS011;36331;51.378;0.018;2023-02-23T10:23:57;3.92;;;0.75;;
26060;SDS011;36331;51.378;0.018;2023-02-23T10:26:29;10.07;;;1.20;;
26060;SDS011;36331;51.378;0.018;2023-02-23T10:29:01;5.18;;;1.15;;
26060;SDS011;36331;51.378;0.018;2023-02-23T10:31:33;3.88;;;1.35;;
26060;SDS011;36331;51.378;0.018;2023-02-23T10:34:08;3.28;;;0.80;;
26060;SDS011;36331;51.378;0.018;2023-02-23T10:36:42;5.75;;;1.15;;
26060;SDS011;36331;51.378;0.018;2023-02-23T10:39:13;3.97;;;1.00;;
26060;SDS011;36331;51.378;0.018;2023-02-23T10:41:42;4.20;;;0.93;;
26060;SDS011;36331;51.378;0.018;2023-02-23T10:44:14;4.00;;;0.93;;
26060;SDS011;36331;51.378;0.018;2023-02-23T10:46:48;5.38;;;1.42;;
26060;SDS011;36331;51.378;0.018;2023-02-23T10:49:23;8.77;;;1.23;;
26060;SDS011;36331;51.378;0.018;2023-02-23T10:51:56;5.28;;;1.92;;
26060;SDS011;36331;51.378;0.018;2023-02-23T10:54:39;7.03;;;1.48;;
26060;SDS011;36331;51.378;0.018;2023-02-23T10:57:23;5.60;;;0.95;;
26060;SDS011;36331;51.378;0.018;2023-02-23T10:59:58;4.45;;;0.80;;
26060;SDS011;36331;51.378;0.018;2023-02-23T11:02:29;2.65;;;1.13;;
26060;SDS011;36331;51.378;0.018;2023-02-23T11:05:01;8.70;;;2.00;;
26060;SDS011;36331;51.378;0.018;2023-02-23T11:07:32;4.70;;;1.75;;
26060;SDS011;36331;51.378;0.018;2023-02-23T11:12:46;3.13;;;0.90;;
26060;SDS011;36331;51.378;0.018;2023-02-23T11:15:20;5.90;;;1.27;;
26060;SDS011;36331;51.378;0.018;2023-02-23T11:18:17;6.28;;;1.10;;
26060;SDS011;36331;51.378;0.018;2023-02-23T11:20:49;9.57;;;1.65;;
26060;SDS011;36331;51.378;0.018;2023-02-23T11:23:20;7.55;;;1.08;;
26060;SDS011;36331;51.378;0.018;2023-02-23T11:25:51;8.98;;;1.67;;
26060;SDS011;36331;51.378;0.018;2023-02-23T11:28:23;8.70;;;1.23;;
26060;SDS011;36331;51.378;0.018;2023-02-23T11:30:56;7.43;;;0.93;;
26060;SDS011;36331;51.378;0.018;2023-02-23T11:33:28;7.20;;;1.27;;
26060;SDS011;36331;51.378;0.018;2023-02-23T11:36:17;8.60;;;1.73;;
26060;SDS011;36331;51.378;0.018;2023-02-23T11:38:51;8.13;;;1.20;;
26060;SDS011;36331;51.378;0.018;2023-02-23T11:41:28;9.05;;;1.30;;
26060;SDS011;36331;51.378;0.018;2023-02-23T11:44:01;4.05;;;1.10;;
26060;SDS011;36331;51.378;0.018;2023-02-23T11:46:34;5.35;;;1.08;;
26060;SDS011;36331;51.378;0.018;2023-02-23T11:49:04;4.32;;;1.20;;
26060;SDS011;36331;51.378;0.018;2023-02-23T11:51:36;4.65;;;1.52;;
26060;SDS011;36331;51.378;0.018;2023-02-23T11:54:06;3.90;;;1.30;;
26060;SDS011;36331;51.378;0.018;2023-02-23T11:56:43;2.53;;;0.77;;
26060;SDS011;36331;51.378;0.018;2023-02-23T11:59:16;7.63;;;1.50;;
26060;SDS011;36331;51.378;0.018;2023-02-23T12:01:47;2.65;;;1.05;;
26060;SDS011;36331;51.378;0.018;2023-02-23T12:04:24;5.75;;;1.33;;
26060;SDS011;36331;51.378;0.018;2023-02-23T12:07:18;3.47;;;1.23;;
26060;SDS011;36331;51.378;0.018;2023-02-23T12:09:52;2.97;;;1.05;;
26060;SDS011;36331;51.378;0.018;2023-02-23T12:12:24;2.53;;;0.80;;
26060;SDS011;36331;51.378;0.018;2023-02-23T12:14:58;1.58;;;1.00;;
26060;SDS011;36331;51.378;0.018;2023-02-23T12:17:30;2.58;;;0.80;;
26060;SDS011;36331;51.378;0.018;2023-02-23T12:20:05;6.05;;;1.88;;
26060;SDS011;36331;51.378;0.018;2023-02-23T12:22:41;2.33;;;0.60;;
26060;SDS011;36331;51.378;0.018;2023-02-23T12:25:14;4.80;;;0.90;;
26060;SDS011;36331;51.378;0.018;2023-02-23T12:27:49;5.95;;;0.90;;
26060;SDS011;36331;51.378;0.018;2023-02-23T12:30:22;2.05;;;0.70;;
26060;SDS011;36331;51.378;0.018;2023-02-23T12:32:54;5.07;;;0.57;;
26060;SDS011;36331;51.378;0.018;2023-02-23T12:35:26;4.05;;;1.05;;
26060;SDS011;36331;51.378;0.018;2023-02-23T12:38:00;1.35;;;0.40;;
26060;SDS011;36331;51.378;0.018;2023-02-23T12:40:33;1.88;;;0.60;;
26060;SDS011;36331;51.378;0.018;2023-02-23T12:43:04;1.67;;;1.05;;
26060;SDS011;36331;51.378;0.018;2023-02-23T12:45:39;3.63;;;0.85;;
26060;SDS011;36331;51.378;0.018;2023-02-23T12:48:12;3.92;;;0.73;;
26060;SDS011;36331;51.378;0.018;2023-02-23T12:50:43;2.55;;;0.82;;
26060;SDS011;36331;51.378;0.018;2023-02-23T12:53:18;3.53;;;0.68;;
26060;SDS011;36331;51.378;0.018;2023-02-23T12:55:53;0.55;;;0.50;;
26060;SDS011;36331;51.378;0.018;2023-02-23T12:58:31;1.80;;;0.80;;
26060;SDS011;36331;51.378;0.018;2023-02-23T13:01:02;1.02;;;0.40;;
26060;SDS011;36331;51.378;0.018;2023-02-23T13:03:49;2.47;;;0.70;;
26060;SDS011;36331;51.378;0.018;2023-02-23T13:06:24;1.20;;;0.63;;
26060;SDS011;36331;51.378;0.018;2023-02-23T13:09:03;2.00;;;0.60;;
26060;SDS011;36331;51.378;0.018;2023-02-23T13:11:45;0.98;;;0.60;;
26060;SDS011;36331;51.378;0.018;2023-02-23T13:14:18;5.33;;;0.70;;
26060;SDS011;36331;51.378;0.018;2023-02-23T13:16:53;2.15;;;0.80;;
26060;SDS011;36331;51.378;0.018;2023-02-23T13:19:27;2.90;;;1.77;;
26060;SDS011;36331;51.378;0.018;2023-02-23T13:22:00;2.83;;;1.42;;
26060;SDS011;36331;51.378;0.018;2023-02-23T13:24:34;3.60;;;0.80;;
26060;SDS011;36331;51.378;0.018;2023-02-23T13:27:05;2.35;;;0.65;;
26060;SDS011;36331;51.378;0.018;2023-02-23T13:29:41;1.83;;;0.95;;
26060;SDS011;36331;51.378;0.018;2023-02-23T13:32:12;3.45;;;0.80;;
26060;SDS011;36331;51.378;0.018;2023-02-23T13:34:43;3.33;;;0.80;;
26060;SDS011;36331;51.378;0.018;2023-02-23T13:37:13;3.72;;;0.73;;
26060;SDS011;36331;51.378;0.018;2023-02-23T13:39:51;3.28;;;0.60;;
26060;SDS011;36331;51.378;0.018;2023-02-23T13:42:39;3.20;;;1.00;;
26060;SDS011;36331;51.378;0.018;2023-02-23T13:45:15;1.63;;;0.40;;
26060;SDS011;36331;51.378;0.018;2023-02-23T13:47:51;6.28;;;1.30;;
26060;SDS011;36331;51.378;0.018;2023-02-23T13:50:23;3.47;;;1.45;;
26060;SDS011;36331;51.378;0.018;2023-02-23T13:52:57;4.28;;;1.27;;
26060;SDS011;36331;51.378;0.018;2023-02-23T13:55:33;2.20;;;0.80;;
26060;SDS011;36331;51.378;0.018;2023-02-23T13:58:15;4.45;;;1.05;;
26060;SDS011;36331;51.378;0.018;2023-02-23T14:00:50;4.15;;;0.98;;
26060;SDS011;36331;51.378;0.018;2023-02-23T14:03:22;4.13;;;1.20;;
26060;SDS011;36331;51.378;0.018;2023-02-23T14:05:54;4.97;;;1.15;;
26060;SDS011;36331;51.378;0.018;2023-02-23T14:08:27;4.03;;;1.17;;
26060;SDS011;36331;51.378;0.018;2023-02-23T14:10:58;4.18;;;1.10;;
26060;SDS011;36331;51.378;0.018;2023-02-23T14:13:29;3.20;;;1.75;;
26060;SDS011;36331;51.378;0.018;2023-02-23T14:16:15;3.88;;;1.23;;
26060;SDS011;36331;51.378;0.018;2023-02-23T14:19:05;3.70;;;1.20;;
26060;SDS011;36331;51.378;0.018;2023-02-23T14:21:36;2.42;;;1.10;;
26060;SDS011;36331;51.378;0.018;2023-02-23T14:24:12;3.38;;;1.10;;
26060;SDS011;36331;51.378;0.018;2023-02-23T14:26:46;1.52;;;0.80;;
26060;SDS011;36331;51.378;0.018;2023-02-23T14:29:37;5.93;;;1.00;;
26060;SDS011;36331;51.378;0.018;2023-02-23T14:34:55;1.50;;;0.68;;
26060;SDS011;36331;51.378;0.018;2023-02-23T14:37:25;1.95;;;0.55;;
26060;SDS011;36331;51.378;0.018;2023-02-23T14:40:10;2.47;;;0.75;;
26060;SDS011;36331;51.378;0.018;2023-02-23T14:42:43;2.67;;;0.85;;
26060;SDS011;36331;51.378;0.018;2023-02-23T14:45:16;6.70;;;1.20;;
26060;SDS011;36331;51.378;0.018;2023-02-23T14:47:47;3.15;;;0.88;;
26060;SDS011;36331;51.378;0.018;2023-02-23T14:50:23;3.83;;;0.75;;
26060;SDS011;36331;51.378;0.018;2023-02-23T14:52:53;4.07;;;0.68;;
26060;SDS011;36331;51.378;0.018;2023-02-23T14:55:23;3.90;;;0.93;;
26060;SDS011;36331;51.378;0.018;2023-02-23T15:00:26;3.03;;;1.20;;
26060;SDS011;36331;51.378;0.018;2023-02-23T15:02:59;4.30;;;1.60;;
26060;SDS011;36331;51.378;0.018;2023-02-23T15:05:29;5.47;;;1.38;;
26060;SDS011;36331;51.378;0.018;2023-02-23T15:07:59;5.00;;;1.15;;
26060;SDS011;36331;51.378;0.018;2023-02-23T15:10:31;4.82;;;1.75;;
26060;SDS011;36331;51.378;0.018;2023-02-23T15:13:06;8.57;;;1.33;;
26060;SDS011;36331;51.378;0.018;2023-02-23T15:15:41;2.50;;;1.17;;
26060;SDS011;36331;51.378;0.018;2023-02-23T15:18:13;3.28;;;1.63;;
26060;SDS011;36331;51.378;0.018;2023-02-23T15:20:47;6.60;;;2.25;;
26060;SDS011;36331;51.378;0.018;2023-02-23T15:23:17;7.25;;;2.40;;
26060;SDS011;36331;51.378;0.018;2023-02-23T15:25:47;28.55;;;5.15;;
26060;SDS011;36331;51.378;0.018;2023-02-23T15:28:21;4.38;;;1.92;;
26060;SDS011;36331;51.378;0.018;2023-02-23T15:30:53;3.25;;;1.38;;
26060;SDS011;36331;51.378;0.018;2023-02-23T15:33:23;3.97;;;0.95;;
26060;SDS011;36331;51.378;0.018;2023-02-23T15:35:55;4.55;;;1.00;;
26060;SDS011;36331;51.378;0.018;2023-02-23T15:38:28;3.78;;;1.10;;
26060;SDS011;36331;51.378;0.018;2023-02-23T15:41:14;1.98;;;1.20;;
26060;SDS011;36331;51.378;0.018;2023-02-23T15:43:46;2.70;;;0.70;;
26060;SDS011;36331;51.378;0.018;2023-02-23T15:46:18;3.80;;;0.50;;
26060;SDS011;36331;51.378;0.018;2023-02-23T15:48:50;4.90;;;0.90;;
26060;SDS011;36331;51.378;0.018;2023-02-23T15:51:21;4.00;;;0.85;;
26060;SDS011;36331;51.378;0.018;2023-02-23T15:53:51;5.18;;;1.38;;
26060;SDS011;36331;51.378;0.018;2023-02-23T15:56:23;2.42;;;0.80;;